sensor_id;sensor_type;location;lat;lon;timestamp;P1;durP1;ratioP1;P2;durP2;ratioP2
40591;SDS011;26301;42.832;23.918;2022-11-20T00:01:28;8.38;;;3.55;;
40591;SDS011;26301;42.832;23.918;2022-11-20T00:03:55;6.20;;;3.22;;
40591;SDS011;26301;42.832;23.918;2022-11-20T00:06:23;5.57;;;3.17;;
40591;SDS011;26301;42.832;23.918;2022-11-20T00:08:53;10.65;;;3.60;;
40591;SDS011;26301;42.832;23.918;2022-11-20T00:11:21;5.55;;;3.10;;
40591;SDS011;26301;42.832;23.918;2022-11-20T00:13:49;9.77;;;4.05;;
40591;SDS011;26301;42.832;23.918;2022-11-20T00:16:18;9.10;;;3.15;;
40591;SDS011;26301;42.832;23.918;2022-11-20T00:18:46;7.35;;;3.17;;
40591;SDS011;26301;42.832;23.918;2022-11-20T00:21:13;5.88;;;2.72;;
40591;SDS011;26301;42.832;23.918;2022-11-20T00:23:39;6.43;;;3.28;;
40591;SDS011;26301;42.832;23.918;2022-11-20T00:26:06;11.38;;;3.40;;
40591;SDS011;26301;42.832;23.918;2022-11-20T00:28:34;5.15;;;2.60;;
40591;SDS011;26301;42.832;23.918;2022-11-20T00:33:33;6.15;;;2.92;;
40591;SDS011;26301;42.832;23.918;2022-11-20T00:36:09;7.18;;;2.60;;
40591;SDS011;26301;42.832;23.918;2022-11-20T00:38:37;5.65;;;2.67;;
40591;SDS011;26301;42.832;23.918;2022-11-20T00:41:04;8.05;;;2.80;;
40591;SDS011;26301;42.832;23.918;2022-11-20T00:43:32;8.27;;;2.58;;
40591;SDS011;26301;42.832;23.918;2022-11-20T00:46:00;7.40;;;3.20;;
40591;SDS011;26301;42.832;23.918;2022-11-20T00:48:31;8.70;;;2.75;;
40591;SDS011;26301;42.832;23.918;2022-11-20T00:50:59;5.22;;;2.60;;
40591;SDS011;26301;42.832;23.918;2022-11-20T00:53:25;6.47;;;3.20;;
40591;SDS011;26301;42.832;23.918;2022-11-20T00:55:55;8.73;;;2.90;;
40591;SDS011;26301;42.832;23.918;2022-11-20T00:58:28;7.32;;;3.03;;
40591;SDS011;26301;42.832;23.918;2022-11-20T01:01:02;4.03;;;2.45;;
40591;SDS011;26301;42.832;23.918;2022-11-20T01:03:32;5.95;;;2.22;;
40591;SDS011;26301;42.832;23.918;2022-11-20T01:06:11;8.52;;;2.75;;
40591;SDS011;26301;42.832;23.918;2022-11-20T01:08:39;6.32;;;2.60;;
40591;SDS011;26301;42.832;23.918;2022-11-20T01:11:06;6.05;;;2.47;;
40591;SDS011;26301;42.832;23.918;2022-11-20T01:13:37;5.22;;;2.80;;
40591;SDS011;26301;42.832;23.918;2022-11-20T01:18:37;5.43;;;2.70;;
40591;SDS011;26301;42.832;23.918;2022-11-20T01:21:05;4.75;;;2.83;;
40591;SDS011;26301;42.832;23.918;2022-11-20T01:23:36;5.63;;;2.25;;
40591;SDS011;26301;42.832;23.918;2022-11-20T01:26:04;5.65;;;2.53;;
40591;SDS011;26301;42.832;23.918;2022-11-20T01:28:32;6.75;;;2.55;;
40591;SDS011;26301;42.832;23.918;2022-11-20T01:30:58;4.53;;;2.35;;
40591;SDS011;26301;42.832;23.918;2022-11-20T01:33:24;8.60;;;2.75;;
40591;SDS011;26301;42.832;23.918;2022-11-20T01:35:51;5.85;;;2.25;;
40591;SDS011;26301;42.832;23.918;2022-11-20T01:38:17;7.18;;;3.00;;
40591;SDS011;26301;42.832;23.918;2022-11-20T01:40:43;6.63;;;2.50;;
40591;SDS011;26301;42.832;23.918;2022-11-20T01:43:13;4.93;;;2.20;;
40591;SDS011;26301;42.832;23.918;2022-11-20T01:45:56;3.90;;;1.90;;
40591;SDS011;26301;42.832;23.918;2022-11-20T01:48:25;7.72;;;2.63;;
40591;SDS011;26301;42.832;23.918;2022-11-20T01:50:57;5.82;;;2.10;;
40591;SDS011;26301;42.832;23.918;2022-11-20T01:53:24;5.22;;;2.55;;
40591;SDS011;26301;42.832;23.918;2022-11-20T01:55:54;6.55;;;2.40;;
40591;SDS011;26301;42.832;23.918;2022-11-20T01:58:26;4.80;;;2.30;;
40591;SDS011;26301;42.832;23.918;2022-11-20T02:00:55;6.60;;;2.28;;
40591;SDS011;26301;42.832;23.918;2022-11-20T02:03:21;6.05;;;2.25;;
40591;SDS011;26301;42.832;23.918;2022-11-20T02:05:51;6.88;;;2.63;;
40591;SDS011;26301;42.832;23.918;2022-11-20T02:08:39;4.53;;;2.20;;
40591;SDS011;26301;42.832;23.918;2022-11-20T02:11:05;5.57;;;2.10;;
40591;SDS011;26301;42.832;23.918;2022-11-20T02:13:31;5.63;;;2.28;;
40591;SDS011;26301;42.832;23.918;2022-11-20T02:16:10;8.07;;;2.22;;
40591;SDS011;26301;42.832;23.918;2022-11-20T02:18:41;4.93;;;2.45;;
40591;SDS011;26301;42.832;23.918;2022-11-20T02:21:13;6.30;;;2.63;;
40591;SDS011;26301;42.832;23.918;2022-11-20T02:26:28;4.68;;;2.55;;
40591;SDS011;26301;42.832;23.918;2022-11-20T02:28:56;6.18;;;2.78;;
40591;SDS011;26301;42.832;23.918;2022-11-20T02:31:23;7.65;;;2.25;;
40591;SDS011;26301;42.832;23.918;2022-11-20T02:33:53;3.88;;;1.98;;
40591;SDS011;26301;42.832;23.918;2022-11-20T02:36:23;5.80;;;2.08;;
40591;SDS011;26301;42.832;23.918;2022-11-20T02:38:51;5.53;;;2.10;;
40591;SDS011;26301;42.832;23.918;2022-11-20T02:41:17;4.40;;;1.90;;
40591;SDS011;26301;42.832;23.918;2022-11-20T02:43:42;6.57;;;2.00;;
40591;SDS011;26301;42.832;23.918;2022-11-20T02:46:08;4.10;;;1.95;;
40591;SDS011;26301;42.832;23.918;2022-11-20T02:48:34;5.05;;;2.00;;
40591;SDS011;26301;42.832;23.918;2022-11-20T02:51:00;5.00;;;1.90;;
40591;SDS011;26301;42.832;23.918;2022-11-20T02:53:26;6.70;;;1.90;;
40591;SDS011;26301;42.832;23.918;2022-11-20T02:55:51;7.07;;;2.10;;
40591;SDS011;26301;42.832;23.918;2022-11-20T02:58:17;5.55;;;1.98;;
40591;SDS011;26301;42.832;23.918;2022-11-20T03:00:43;7.35;;;2.25;;
40591;SDS011;26301;42.832;23.918;2022-11-20T03:03:08;7.35;;;2.30;;
40591;SDS011;26301;42.832;23.918;2022-11-20T03:05:34;5.03;;;2.60;;
40591;SDS011;26301;42.832;23.918;2022-11-20T03:08:00;6.82;;;1.98;;
40591;SDS011;26301;42.832;23.918;2022-11-20T03:10:26;5.97;;;2.05;;
40591;SDS011;26301;42.832;23.918;2022-11-20T03:12:53;3.40;;;1.60;;
40591;SDS011;26301;42.832;23.918;2022-11-20T03:15:24;5.57;;;1.77;;
40591;SDS011;26301;42.832;23.918;2022-11-20T03:17:52;9.50;;;2.28;;
40591;SDS011;26301;42.832;23.918;2022-11-20T03:20:19;5.28;;;2.08;;
40591;SDS011;26301;42.832;23.918;2022-11-20T03:22:45;5.25;;;1.70;;
40591;SDS011;26301;42.832;23.918;2022-11-20T03:25:11;4.93;;;1.98;;
40591;SDS011;26301;42.832;23.918;2022-11-20T03:27:37;3.25;;;1.60;;
40591;SDS011;26301;42.832;23.918;2022-11-20T03:30:03;4.78;;;1.80;;
40591;SDS011;26301;42.832;23.918;2022-11-20T03:32:29;4.55;;;1.98;;
40591;SDS011;26301;42.832;23.918;2022-11-20T03:34:55;6.07;;;2.63;;
40591;SDS011;26301;42.832;23.918;2022-11-20T03:37:20;4.35;;;2.05;;
40591;SDS011;26301;42.832;23.918;2022-11-20T03:39:46;3.85;;;1.80;;
40591;SDS011;26301;42.832;23.918;2022-11-20T03:42:12;3.88;;;1.60;;
40591;SDS011;26301;42.832;23.918;2022-11-20T03:44:58;5.35;;;2.05;;
40591;SDS011;26301;42.832;23.918;2022-11-20T03:47:23;5.82;;;2.13;;
40591;SDS011;26301;42.832;23.918;2022-11-20T03:49:50;4.63;;;1.77;;
40591;SDS011;26301;42.832;23.918;2022-11-20T03:52:15;4.15;;;1.50;;
40591;SDS011;26301;42.832;23.918;2022-11-20T03:54:41;4.60;;;2.00;;
40591;SDS011;26301;42.832;23.918;2022-11-20T03:57:06;5.75;;;1.63;;
40591;SDS011;26301;42.832;23.918;2022-11-20T03:59:32;5.47;;;1.95;;
40591;SDS011;26301;42.832;23.918;2022-11-20T04:01:58;7.53;;;2.05;;
40591;SDS011;26301;42.832;23.918;2022-11-20T04:04:23;3.78;;;1.92;;
40591;SDS011;26301;42.832;23.918;2022-11-20T04:06:49;5.30;;;2.13;;
40591;SDS011;26301;42.832;23.918;2022-11-20T04:09:14;5.38;;;2.50;;
40591;SDS011;26301;42.832;23.918;2022-11-20T04:11:40;6.03;;;2.20;;
40591;SDS011;26301;42.832;23.918;2022-11-20T04:14:06;5.18;;;1.88;;
40591;SDS011;26301;42.832;23.918;2022-11-20T04:16:38;7.03;;;2.20;;
40591;SDS011;26301;42.832;23.918;2022-11-20T04:19:05;5.25;;;2.58;;
40591;SDS011;26301;42.832;23.918;2022-11-20T04:21:34;7.88;;;3.03;;
40591;SDS011;26301;42.832;23.918;2022-11-20T04:24:00;6.28;;;2.00;;
40591;SDS011;26301;42.832;23.918;2022-11-20T04:26:27;144.50;;;62.85;;
40591;SDS011;26301;42.832;23.918;2022-11-20T04:28:54;143.35;;;57.33;;
40591;SDS011;26301;42.832;23.918;2022-11-20T04:31:21;62.47;;;26.75;;
40591;SDS011;26301;42.832;23.918;2022-11-20T04:33:48;38.83;;;16.27;;
40591;SDS011;26301;42.832;23.918;2022-11-20T04:36:15;7.95;;;3.45;;
40591;SDS011;26301;42.832;23.918;2022-11-20T04:38:46;8.70;;;4.70;;
40591;SDS011;26301;42.832;23.918;2022-11-20T04:41:16;7.40;;;4.03;;
40591;SDS011;26301;42.832;23.918;2022-11-20T04:43:47;8.98;;;3.40;;
40591;SDS011;26301;42.832;23.918;2022-11-20T04:46:17;8.00;;;2.92;;
40591;SDS011;26301;42.832;23.918;2022-11-20T04:48:44;9.75;;;2.67;;
40591;SDS011;26301;42.832;23.918;2022-11-20T04:51:11;6.15;;;2.50;;
40591;SDS011;26301;42.832;23.918;2022-11-20T04:53:37;5.72;;;2.00;;
40591;SDS011;26301;42.832;23.918;2022-11-20T04:56:04;6.00;;;2.38;;
40591;SDS011;26301;42.832;23.918;2022-11-20T04:58:32;9.48;;;2.47;;
40591;SDS011;26301;42.832;23.918;2022-11-20T05:01:09;6.82;;;2.10;;
40591;SDS011;26301;42.832;23.918;2022-11-20T05:03:40;5.60;;;3.05;;
40591;SDS011;26301;42.832;23.918;2022-11-20T05:06:08;7.00;;;3.13;;
40591;SDS011;26301;42.832;23.918;2022-11-20T05:08:35;5.60;;;2.15;;
40591;SDS011;26301;42.832;23.918;2022-11-20T05:11:05;5.85;;;1.90;;
40591;SDS011;26301;42.832;23.918;2022-11-20T05:13:33;6.15;;;2.22;;
40591;SDS011;26301;42.832;23.918;2022-11-20T05:16:05;7.68;;;2.10;;
40591;SDS011;26301;42.832;23.918;2022-11-20T05:18:36;5.68;;;2.33;;
40591;SDS011;26301;42.832;23.918;2022-11-20T05:21:02;6.63;;;2.10;;
40591;SDS011;26301;42.832;23.918;2022-11-20T05:23:29;7.05;;;3.78;;
40591;SDS011;26301;42.832;23.918;2022-11-20T05:25:56;4.88;;;2.45;;
40591;SDS011;26301;42.832;23.918;2022-11-20T05:28:22;6.75;;;1.90;;
40591;SDS011;26301;42.832;23.918;2022-11-20T05:30:49;8.80;;;2.72;;
40591;SDS011;26301;42.832;23.918;2022-11-20T05:33:15;3.42;;;2.15;;
40591;SDS011;26301;42.832;23.918;2022-11-20T05:35:41;4.57;;;2.00;;
40591;SDS011;26301;42.832;23.918;2022-11-20T05:38:07;6.70;;;1.48;;
40591;SDS011;26301;42.832;23.918;2022-11-20T05:40:33;7.05;;;2.25;;
40591;SDS011;26301;42.832;23.918;2022-11-20T05:42:59;6.15;;;1.80;;
40591;SDS011;26301;42.832;23.918;2022-11-20T05:45:25;3.22;;;1.38;;
40591;SDS011;26301;42.832;23.918;2022-11-20T05:47:51;9.82;;;1.77;;
40591;SDS011;26301;42.832;23.918;2022-11-20T05:50:16;5.35;;;1.48;;
40591;SDS011;26301;42.832;23.918;2022-11-20T05:52:42;9.32;;;1.80;;
40591;SDS011;26301;42.832;23.918;2022-11-20T05:55:08;3.63;;;0.98;;
40591;SDS011;26301;42.832;23.918;2022-11-20T05:57:34;3.50;;;1.27;;
40591;SDS011;26301;42.832;23.918;2022-11-20T06:00:00;6.05;;;1.17;;
40591;SDS011;26301;42.832;23.918;2022-11-20T06:02:26;4.05;;;1.20;;
40591;SDS011;26301;42.832;23.918;2022-11-20T06:04:52;2.55;;;1.00;;
40591;SDS011;26301;42.832;23.918;2022-11-20T06:07:17;5.35;;;1.75;;
40591;SDS011;26301;42.832;23.918;2022-11-20T06:09:43;2.22;;;1.30;;
40591;SDS011;26301;42.832;23.918;2022-11-20T06:12:08;5.10;;;2.25;;
40591;SDS011;26301;42.832;23.918;2022-11-20T06:14:34;9.35;;;5.63;;
40591;SDS011;26301;42.832;23.918;2022-11-20T06:16:59;11.43;;;7.13;;
40591;SDS011;26301;42.832;23.918;2022-11-20T06:19:25;11.05;;;5.70;;
40591;SDS011;26301;42.832;23.918;2022-11-20T06:21:51;11.30;;;8.27;;
40591;SDS011;26301;42.832;23.918;2022-11-20T06:24:17;11.63;;;8.77;;
40591;SDS011;26301;42.832;23.918;2022-11-20T06:26:42;15.43;;;10.05;;
40591;SDS011;26301;42.832;23.918;2022-11-20T06:29:09;12.00;;;8.93;;
40591;SDS011;26301;42.832;23.918;2022-11-20T06:31:34;13.00;;;10.02;;
40591;SDS011;26301;42.832;23.918;2022-11-20T06:34:02;15.25;;;11.98;;
40591;SDS011;26301;42.832;23.918;2022-11-20T06:36:31;17.92;;;12.75;;
40591;SDS011;26301;42.832;23.918;2022-11-20T06:38:57;19.30;;;14.55;;
40591;SDS011;26301;42.832;23.918;2022-11-20T06:41:24;15.18;;;10.93;;
40591;SDS011;26301;42.832;23.918;2022-11-20T06:43:50;12.40;;;9.32;;
40591;SDS011;26301;42.832;23.918;2022-11-20T06:46:16;14.35;;;10.45;;
40591;SDS011;26301;42.832;23.918;2022-11-20T06:48:43;13.80;;;9.18;;
40591;SDS011;26301;42.832;23.918;2022-11-20T06:51:09;14.27;;;10.45;;
40591;SDS011;26301;42.832;23.918;2022-11-20T06:53:36;17.45;;;10.70;;
40591;SDS011;26301;42.832;23.918;2022-11-20T06:56:02;15.20;;;11.75;;
40591;SDS011;26301;42.832;23.918;2022-11-20T06:58:29;14.25;;;10.75;;
40591;SDS011;26301;42.832;23.918;2022-11-20T07:00:59;15.55;;;12.48;;
40591;SDS011;26301;42.832;23.918;2022-11-20T07:03:27;17.75;;;13.23;;
40591;SDS011;26301;42.832;23.918;2022-11-20T07:05:56;16.25;;;12.95;;
40591;SDS011;26301;42.832;23.918;2022-11-20T07:08:23;17.35;;;13.48;;
40591;SDS011;26301;42.832;23.918;2022-11-20T07:10:49;20.02;;;15.13;;
40591;SDS011;26301;42.832;23.918;2022-11-20T07:13:15;26.17;;;14.80;;
40591;SDS011;26301;42.832;23.918;2022-11-20T07:15:41;16.55;;;12.63;;
40591;SDS011;26301;42.832;23.918;2022-11-20T07:18:07;21.08;;;14.90;;
40591;SDS011;26301;42.832;23.918;2022-11-20T07:20:33;17.90;;;12.90;;
40591;SDS011;26301;42.832;23.918;2022-11-20T07:22:59;16.35;;;11.07;;
40591;SDS011;26301;42.832;23.918;2022-11-20T07:25:25;20.33;;;12.95;;
40591;SDS011;26301;42.832;23.918;2022-11-20T07:27:52;17.75;;;13.75;;
40591;SDS011;26301;42.832;23.918;2022-11-20T07:30:18;18.67;;;13.88;;
40591;SDS011;26301;42.832;23.918;2022-11-20T07:32:47;20.23;;;14.02;;
40591;SDS011;26301;42.832;23.918;2022-11-20T07:35:16;18.88;;;14.25;;
40591;SDS011;26301;42.832;23.918;2022-11-20T07:37:45;16.35;;;13.00;;
40591;SDS011;26301;42.832;23.918;2022-11-20T07:40:11;18.27;;;13.55;;
40591;SDS011;26301;42.832;23.918;2022-11-20T07:42:38;18.02;;;13.00;;
40591;SDS011;26301;42.832;23.918;2022-11-20T07:45:04;18.45;;;12.98;;
40591;SDS011;26301;42.832;23.918;2022-11-20T07:47:34;18.08;;;13.48;;
40591;SDS011;26301;42.832;23.918;2022-11-20T07:50:01;16.98;;;12.68;;
40591;SDS011;26301;42.832;23.918;2022-11-20T07:52:26;17.27;;;13.15;;
40591;SDS011;26301;42.832;23.918;2022-11-20T07:55:08;16.40;;;12.80;;
40591;SDS011;26301;42.832;23.918;2022-11-20T07:57:39;19.70;;;14.27;;
40591;SDS011;26301;42.832;23.918;2022-11-20T08:00:10;17.42;;;12.90;;
40591;SDS011;26301;42.832;23.918;2022-11-20T08:02:37;15.30;;;11.40;;
40591;SDS011;26301;42.832;23.918;2022-11-20T08:05:04;18.73;;;12.93;;
40591;SDS011;26301;42.832;23.918;2022-11-20T08:07:34;15.65;;;12.30;;
40591;SDS011;26301;42.832;23.918;2022-11-20T08:10:01;17.77;;;12.32;;
40591;SDS011;26301;42.832;23.918;2022-11-20T08:12:27;16.10;;;11.80;;
40591;SDS011;26301;42.832;23.918;2022-11-20T08:15:25;15.88;;;12.00;;
40591;SDS011;26301;42.832;23.918;2022-11-20T08:17:51;17.10;;;12.45;;
40591;SDS011;26301;42.832;23.918;2022-11-20T08:20:18;16.73;;;12.23;;
40591;SDS011;26301;42.832;23.918;2022-11-20T08:22:43;15.82;;;12.20;;
40591;SDS011;26301;42.832;23.918;2022-11-20T08:25:09;16.23;;;12.32;;
40591;SDS011;26301;42.832;23.918;2022-11-20T08:27:35;16.67;;;12.40;;
40591;SDS011;26301;42.832;23.918;2022-11-20T08:30:01;16.75;;;12.30;;
40591;SDS011;26301;42.832;23.918;2022-11-20T08:32:27;15.98;;;12.15;;
40591;SDS011;26301;42.832;23.918;2022-11-20T08:34:52;16.50;;;13.23;;
40591;SDS011;26301;42.832;23.918;2022-11-20T08:37:18;15.43;;;11.73;;
40591;SDS011;26301;42.832;23.918;2022-11-20T08:39:43;15.20;;;11.52;;
40591;SDS011;26301;42.832;23.918;2022-11-20T08:42:09;17.58;;;12.93;;
40591;SDS011;26301;42.832;23.918;2022-11-20T08:44:35;15.27;;;11.73;;
40591;SDS011;26301;42.832;23.918;2022-11-20T08:47:01;15.80;;;11.98;;
40591;SDS011;26301;42.832;23.918;2022-11-20T08:49:26;15.45;;;11.75;;
40591;SDS011;26301;42.832;23.918;2022-11-20T08:51:52;15.50;;;10.60;;
40591;SDS011;26301;42.832;23.918;2022-11-20T08:54:20;16.80;;;12.15;;
40591;SDS011;26301;42.832;23.918;2022-11-20T08:56:47;14.30;;;11.73;;
40591;SDS011;26301;42.832;23.918;2022-11-20T08:59:13;14.10;;;10.95;;
40591;SDS011;26301;42.832;23.918;2022-11-20T09:01:39;14.65;;;11.48;;
40591;SDS011;26301;42.832;23.918;2022-11-20T09:04:05;12.27;;;10.52;;
40591;SDS011;26301;42.832;23.918;2022-11-20T09:06:30;15.20;;;11.15;;
40591;SDS011;26301;42.832;23.918;2022-11-20T09:08:56;16.02;;;11.30;;
40591;SDS011;26301;42.832;23.918;2022-11-20T09:11:22;16.08;;;11.05;;
40591;SDS011;26301;42.832;23.918;2022-11-20T09:13:48;14.63;;;11.15;;
40591;SDS011;26301;42.832;23.918;2022-11-20T09:16:13;19.00;;;12.65;;
40591;SDS011;26301;42.832;23.918;2022-11-20T09:18:39;14.75;;;11.50;;
40591;SDS011;26301;42.832;23.918;2022-11-20T09:21:06;14.82;;;11.40;;
40591;SDS011;26301;42.832;23.918;2022-11-20T09:23:36;15.93;;;12.50;;
40591;SDS011;26301;42.832;23.918;2022-11-20T09:26:06;17.30;;;12.30;;
40591;SDS011;26301;42.832;23.918;2022-11-20T09:28:34;16.38;;;12.00;;
40591;SDS011;26301;42.832;23.918;2022-11-20T09:31:00;14.88;;;11.68;;
40591;SDS011;26301;42.832;23.918;2022-11-20T09:33:31;16.67;;;12.45;;
40591;SDS011;26301;42.832;23.918;2022-11-20T09:35:56;15.77;;;11.68;;
40591;SDS011;26301;42.832;23.918;2022-11-20T09:38:22;15.50;;;11.38;;
40591;SDS011;26301;42.832;23.918;2022-11-20T09:43:56;16.48;;;11.38;;
40591;SDS011;26301;42.832;23.918;2022-11-20T09:46:38;17.40;;;12.48;;
40591;SDS011;26301;42.832;23.918;2022-11-20T09:51:59;15.82;;;12.38;;
40591;SDS011;26301;42.832;23.918;2022-11-20T09:54:30;14.15;;;11.05;;
40591;SDS011;26301;42.832;23.918;2022-11-20T09:57:00;15.98;;;11.95;;
40591;SDS011;26301;42.832;23.918;2022-11-20T09:59:39;18.80;;;13.88;;
40591;SDS011;26301;42.832;23.918;2022-11-20T10:02:15;14.50;;;11.45;;
40591;SDS011;26301;42.832;23.918;2022-11-20T10:18:58;16.23;;;11.75;;
40591;SDS011;26301;42.832;23.918;2022-11-20T10:30:13;38.13;;;24.05;;
40591;SDS011;26301;42.832;23.918;2022-11-20T10:32:49;18.70;;;14.55;;
40591;SDS011;26301;42.832;23.918;2022-11-20T10:37:56;25.00;;;17.85;;
40591;SDS011;26301;42.832;23.918;2022-11-20T10:43:01;25.08;;;18.13;;
40591;SDS011;26301;42.832;23.918;2022-11-20T10:48:22;18.10;;;13.70;;
40591;SDS011;26301;42.832;23.918;2022-11-20T10:56:55;18.83;;;14.57;;
40591;SDS011;26301;42.832;23.918;2022-11-20T11:02:21;18.00;;;14.77;;
40591;SDS011;26301;42.832;23.918;2022-11-20T11:04:52;19.17;;;14.63;;
40591;SDS011;26301;42.832;23.918;2022-11-20T11:07:30;18.40;;;13.75;;
40591;SDS011;26301;42.832;23.918;2022-11-20T11:12:27;19.38;;;14.00;;
40591;SDS011;26301;42.832;23.918;2022-11-20T11:14:57;18.77;;;13.27;;
40591;SDS011;26301;42.832;23.918;2022-11-20T11:19:58;18.38;;;14.70;;
40591;SDS011;26301;42.832;23.918;2022-11-20T11:22:24;19.10;;;14.30;;
40591;SDS011;26301;42.832;23.918;2022-11-20T11:24:52;21.67;;;15.05;;
40591;SDS011;26301;42.832;23.918;2022-11-20T11:27:18;19.17;;;14.95;;
40591;SDS011;26301;42.832;23.918;2022-11-20T11:29:45;19.35;;;14.70;;
40591;SDS011;26301;42.832;23.918;2022-11-20T11:32:12;24.27;;;15.75;;
40591;SDS011;26301;42.832;23.918;2022-11-20T11:34:40;18.52;;;14.00;;
40591;SDS011;26301;42.832;23.918;2022-11-20T11:37:17;21.10;;;14.65;;
40591;SDS011;26301;42.832;23.918;2022-11-20T11:39:46;22.23;;;15.88;;
40591;SDS011;26301;42.832;23.918;2022-11-20T11:42:16;21.52;;;17.10;;
40591;SDS011;26301;42.832;23.918;2022-11-20T11:44:44;20.85;;;14.90;;
40591;SDS011;26301;42.832;23.918;2022-11-20T11:47:37;17.08;;;13.70;;
40591;SDS011;26301;42.832;23.918;2022-11-20T11:52:41;15.13;;;12.45;;
40591;SDS011;26301;42.832;23.918;2022-11-20T11:55:09;15.88;;;12.63;;
40591;SDS011;26301;42.832;23.918;2022-11-20T12:00:20;21.70;;;15.30;;
40591;SDS011;26301;42.832;23.918;2022-11-20T12:02:57;18.52;;;14.20;;
40591;SDS011;26301;42.832;23.918;2022-11-20T12:08:23;17.05;;;12.38;;
40591;SDS011;26301;42.832;23.918;2022-11-20T12:10:53;15.00;;;12.73;;
40591;SDS011;26301;42.832;23.918;2022-11-20T12:15:46;24.65;;;12.57;;
40591;SDS011;26301;42.832;23.918;2022-11-20T12:20:50;14.80;;;7.90;;
40591;SDS011;26301;42.832;23.918;2022-11-20T12:25:58;12.75;;;7.32;;
40591;SDS011;26301;42.832;23.918;2022-11-20T12:34:16;12.07;;;2.40;;
40591;SDS011;26301;42.832;23.918;2022-11-20T12:37:13;5.78;;;2.75;;
40591;SDS011;26301;42.832;23.918;2022-11-20T12:40:12;7.35;;;2.47;;
40591;SDS011;26301;42.832;23.918;2022-11-20T12:43:21;5.57;;;2.15;;
40591;SDS011;26301;42.832;23.918;2022-11-20T12:46:25;5.60;;;1.85;;
40591;SDS011;26301;42.832;23.918;2022-11-20T12:57:21;10.00;;;7.15;;
40591;SDS011;26301;42.832;23.918;2022-11-20T13:02:41;12.68;;;9.85;;
40591;SDS011;26301;42.832;23.918;2022-11-20T13:11:12;15.88;;;13.00;;
40591;SDS011;26301;42.832;23.918;2022-11-20T13:14:00;16.67;;;12.93;;
40591;SDS011;26301;42.832;23.918;2022-11-20T13:19:11;16.85;;;12.07;;
40591;SDS011;26301;42.832;23.918;2022-11-20T13:21:40;17.98;;;12.63;;
40591;SDS011;26301;42.832;23.918;2022-11-20T13:29:36;19.50;;;15.18;;
40591;SDS011;26301;42.832;23.918;2022-11-20T13:34:55;13.18;;;10.48;;
40591;SDS011;26301;42.832;23.918;2022-11-20T13:37:33;12.77;;;9.93;;
40591;SDS011;26301;42.832;23.918;2022-11-20T13:42:45;11.65;;;9.48;;
40591;SDS011;26301;42.832;23.918;2022-11-20T13:45:25;12.77;;;9.70;;
40591;SDS011;26301;42.832;23.918;2022-11-20T13:47:56;14.05;;;10.57;;
40591;SDS011;26301;42.832;23.918;2022-11-20T13:50:53;12.13;;;9.75;;
40591;SDS011;26301;42.832;23.918;2022-11-20T13:56:59;12.23;;;8.43;;
40591;SDS011;26301;42.832;23.918;2022-11-20T14:02:23;12.00;;;9.93;;
40591;SDS011;26301;42.832;23.918;2022-11-20T14:04:53;12.60;;;9.98;;
40591;SDS011;26301;42.832;23.918;2022-11-20T14:07:24;12.63;;;10.25;;
40591;SDS011;26301;42.832;23.918;2022-11-20T14:09:56;15.68;;;12.02;;
40591;SDS011;26301;42.832;23.918;2022-11-20T14:12:23;13.20;;;9.55;;
40591;SDS011;26301;42.832;23.918;2022-11-20T14:14:56;13.90;;;11.02;;
40591;SDS011;26301;42.832;23.918;2022-11-20T14:17:24;16.63;;;12.57;;
40591;SDS011;26301;42.832;23.918;2022-11-20T14:20:17;15.18;;;10.93;;
40591;SDS011;26301;42.832;23.918;2022-11-20T14:22:51;16.70;;;11.13;;
40591;SDS011;26301;42.832;23.918;2022-11-20T14:25:20;15.85;;;12.52;;
40591;SDS011;26301;42.832;23.918;2022-11-20T14:28:04;14.80;;;10.55;;
40591;SDS011;26301;42.832;23.918;2022-11-20T14:33:09;15.48;;;12.25;;
40591;SDS011;26301;42.832;23.918;2022-11-20T14:35:40;14.63;;;10.18;;
40591;SDS011;26301;42.832;23.918;2022-11-20T14:38:21;14.27;;;11.35;;
40591;SDS011;26301;42.832;23.918;2022-11-20T14:40:50;15.43;;;12.73;;
40591;SDS011;26301;42.832;23.918;2022-11-20T14:43:20;13.93;;;10.60;;
40591;SDS011;26301;42.832;23.918;2022-11-20T14:45:51;13.10;;;8.32;;
40591;SDS011;26301;42.832;23.918;2022-11-20T14:51:28;7.57;;;4.65;;
40591;SDS011;26301;42.832;23.918;2022-11-20T14:54:13;7.68;;;4.50;;
40591;SDS011;26301;42.832;23.918;2022-11-20T14:56:41;10.73;;;4.22;;
40591;SDS011;26301;42.832;23.918;2022-11-20T14:59:22;5.60;;;4.00;;
40591;SDS011;26301;42.832;23.918;2022-11-20T15:01:59;9.25;;;5.07;;
40591;SDS011;26301;42.832;23.918;2022-11-20T15:04:28;9.43;;;5.55;;
40591;SDS011;26301;42.832;23.918;2022-11-20T15:06:55;8.93;;;6.22;;
40591;SDS011;26301;42.832;23.918;2022-11-20T15:09:24;8.20;;;6.10;;
40591;SDS011;26301;42.832;23.918;2022-11-20T15:11:54;7.60;;;4.43;;
40591;SDS011;26301;42.832;23.918;2022-11-20T15:14:22;7.47;;;5.60;;
40591;SDS011;26301;42.832;23.918;2022-11-20T15:16:50;9.43;;;7.82;;
40591;SDS011;26301;42.832;23.918;2022-11-20T15:19:23;8.23;;;6.82;;
40591;SDS011;26301;42.832;23.918;2022-11-20T15:21:51;10.48;;;6.03;;
40591;SDS011;26301;42.832;23.918;2022-11-20T15:24:17;9.07;;;5.80;;
40591;SDS011;26301;42.832;23.918;2022-11-20T15:26:43;9.35;;;5.38;;
40591;SDS011;26301;42.832;23.918;2022-11-20T15:29:14;8.05;;;5.88;;
40591;SDS011;26301;42.832;23.918;2022-11-20T15:31:43;7.18;;;5.57;;
40591;SDS011;26301;42.832;23.918;2022-11-20T15:34:14;7.57;;;5.60;;
40591;SDS011;26301;42.832;23.918;2022-11-20T15:36:40;9.27;;;5.50;;
40591;SDS011;26301;42.832;23.918;2022-11-20T15:39:07;11.93;;;5.93;;
40591;SDS011;26301;42.832;23.918;2022-11-20T15:41:34;7.65;;;5.90;;
40591;SDS011;26301;42.832;23.918;2022-11-20T15:44:01;8.15;;;6.30;;
40591;SDS011;26301;42.832;23.918;2022-11-20T15:46:28;16.80;;;10.35;;
40591;SDS011;26301;42.832;23.918;2022-11-20T15:48:59;13.30;;;9.93;;
40591;SDS011;26301;42.832;23.918;2022-11-20T15:51:44;11.82;;;9.57;;
40591;SDS011;26301;42.832;23.918;2022-11-20T15:54:17;7.07;;;4.95;;
40591;SDS011;26301;42.832;23.918;2022-11-20T15:56:47;7.57;;;6.60;;
40591;SDS011;26301;42.832;23.918;2022-11-20T15:59:14;9.30;;;7.38;;
40591;SDS011;26301;42.832;23.918;2022-11-20T16:01:40;7.95;;;6.70;;
40591;SDS011;26301;42.832;23.918;2022-11-20T16:04:13;8.27;;;5.93;;
40591;SDS011;26301;42.832;23.918;2022-11-20T16:06:41;9.07;;;5.70;;
40591;SDS011;26301;42.832;23.918;2022-11-20T16:09:07;8.20;;;5.75;;
40591;SDS011;26301;42.832;23.918;2022-11-20T16:11:34;7.65;;;6.05;;
40591;SDS011;26301;42.832;23.918;2022-11-20T16:14:03;9.68;;;6.40;;
40591;SDS011;26301;42.832;23.918;2022-11-20T16:16:48;8.95;;;7.15;;
40591;SDS011;26301;42.832;23.918;2022-11-20T16:19:14;12.77;;;8.60;;
40591;SDS011;26301;42.832;23.918;2022-11-20T16:21:40;12.77;;;9.98;;
40591;SDS011;26301;42.832;23.918;2022-11-20T16:24:08;16.92;;;11.18;;
40591;SDS011;26301;42.832;23.918;2022-11-20T16:26:36;10.88;;;9.07;;
40591;SDS011;26301;42.832;23.918;2022-11-20T16:29:02;13.43;;;8.15;;
40591;SDS011;26301;42.832;23.918;2022-11-20T16:31:29;9.98;;;7.82;;
40591;SDS011;26301;42.832;23.918;2022-11-20T16:33:56;9.00;;;6.63;;
40591;SDS011;26301;42.832;23.918;2022-11-20T16:36:25;13.73;;;9.35;;
40591;SDS011;26301;42.832;23.918;2022-11-20T16:38:53;11.95;;;9.95;;